sensor_id;sensor_type;location;lat;lon;timestamp;P1;durP1;ratioP1;P2;durP2;ratioP2
68523;SDS011;55524;51.380;13.372;2022-07-29T00:02:17;3.42;;;1.40;;
68523;SDS011;55524;51.380;13.372;2022-07-29T00:04:44;6.55;;;1.67;;
68523;SDS011;55524;51.380;13.372;2022-07-29T00:07:11;2.55;;;1.42;;
68523;SDS011;55524;51.380;13.372;2022-07-29T00:09:37;5.50;;;1.60;;
68523;SDS011;55524;51.380;13.372;2022-07-29T00:12:03;5.40;;;1.33;;
68523;SDS011;55524;51.380;13.372;2022-07-29T00:14:30;3.75;;;1.65;;
68523;SDS011;55524;51.380;13.372;2022-07-29T00:16:56;2.58;;;1.48;;
68523;SDS011;55524;51.380;13.372;2022-07-29T00:19:23;3.05;;;1.40;;
68523;SDS011;55524;51.380;13.372;2022-07-29T00:21:49;3.60;;;1.30;;
68523;SDS011;55524;51.380;13.372;2022-07-29T00:24:15;3.03;;;1.85;;
68523;SDS011;55524;51.380;13.372;2022-07-29T00:26:42;3.15;;;1.30;;
68523;SDS011;55524;51.380;13.372;2022-07-29T00:29:08;2.55;;;1.48;;
68523;SDS011;55524;51.380;13.372;2022-07-29T00:31:34;3.38;;;1.58;;
68523;SDS011;55524;51.380;13.372;2022-07-29T00:34:02;3.42;;;1.50;;
68523;SDS011;55524;51.380;13.372;2022-07-29T00:36:29;3.05;;;1.48;;
68523;SDS011;55524;51.380;13.372;2022-07-29T00:39:15;5.65;;;1.60;;
68523;SDS011;55524;51.380;13.372;2022-07-29T00:42:24;9.63;;;1.40;;
68523;SDS011;55524;51.380;13.372;2022-07-29T05:05:04;4.93;;;1.63;;
68523;SDS011;55524;51.380;13.372;2022-07-29T05:08:11;6.45;;;1.75;;
68523;SDS011;55524;51.380;13.372;2022-07-29T05:10:55;7.85;;;1.80;;
68523;SDS011;55524;51.380;13.372;2022-07-29T05:19:57;8.57;;;2.08;;
68523;SDS011;55524;51.380;13.372;2022-07-29T05:25:51;5.03;;;1.90;;
68523;SDS011;55524;51.380;13.372;2022-07-29T05:35:02;7.05;;;1.92;;
68523;SDS011;55524;51.380;13.372;2022-07-29T05:37:52;5.07;;;2.00;;
68523;SDS011;55524;51.380;13.372;2022-07-29T05:40:25;6.53;;;1.80;;
68523;SDS011;55524;51.380;13.372;2022-07-29T05:43:17;11.38;;;2.03;;
68523;SDS011;55524;51.380;13.372;2022-07-29T05:46:26;8.20;;;2.17;;
68523;SDS011;55524;51.380;13.372;2022-07-29T05:51:50;7.00;;;1.95;;
68523;SDS011;55524;51.380;13.372;2022-07-29T05:54:36;13.93;;;2.35;;
68523;SDS011;55524;51.380;13.372;2022-07-29T05:57:30;9.98;;;2.40;;
68523;SDS011;55524;51.380;13.372;2022-07-29T06:00:06;3.88;;;2.05;;
68523;SDS011;55524;51.380;13.372;2022-07-29T06:02:36;4.15;;;1.95;;
68523;SDS011;55524;51.380;13.372;2022-07-29T06:05:08;29.08;;;3.53;;
68523;SDS011;55524;51.380;13.372;2022-07-29T06:10:13;7.25;;;2.00;;
68523;SDS011;55524;51.380;13.372;2022-07-29T06:12:44;6.55;;;1.60;;
68523;SDS011;55524;51.380;13.372;2022-07-29T06:17:57;8.85;;;1.90;;
68523;SDS011;55524;51.380;13.372;2022-07-29T06:20:25;6.25;;;2.08;;
68523;SDS011;55524;51.380;13.372;2022-07-29T06:23:03;2.47;;;1.80;;
68523;SDS011;55524;51.380;13.372;2022-07-29T06:25:30;4.35;;;1.90;;
68523;SDS011;55524;51.380;13.372;2022-07-29T06:27:59;7.50;;;1.80;;
68523;SDS011;55524;51.380;13.372;2022-07-29T06:30:26;4.47;;;2.20;;
68523;SDS011;55524;51.380;13.372;2022-07-29T06:32:53;6.25;;;2.10;;
68523;SDS011;55524;51.380;13.372;2022-07-29T06:35:20;9.50;;;2.13;;
68523;SDS011;55524;51.380;13.372;2022-07-29T06:37:47;8.50;;;1.98;;
68523;SDS011;55524;51.380;13.372;2022-07-29T06:40:37;6.30;;;1.80;;
68523;SDS011;55524;51.380;13.372;2022-07-29T06:46:30;5.38;;;1.60;;
68523;SDS011;55524;51.380;13.372;2022-07-29T06:49:00;7.82;;;2.03;;
68523;SDS011;55524;51.380;13.372;2022-07-29T06:54:54;15.75;;;2.30;;
68523;SDS011;55524;51.380;13.372;2022-07-29T06:57:25;10.18;;;1.70;;
68523;SDS011;55524;51.380;13.372;2022-07-29T07:00:04;3.13;;;2.03;;
68523;SDS011;55524;51.380;13.372;2022-07-29T07:02:51;5.78;;;1.88;;
68523;SDS011;55524;51.380;13.372;2022-07-29T07:05:44;4.28;;;1.88;;
68523;SDS011;55524;51.380;13.372;2022-07-29T07:08:13;4.88;;;1.70;;
68523;SDS011;55524;51.380;13.372;2022-07-29T07:10:43;8.18;;;1.90;;
68523;SDS011;55524;51.380;13.372;2022-07-29T07:13:11;7.57;;;1.92;;
68523;SDS011;55524;51.380;13.372;2022-07-29T07:15:40;11.07;;;1.73;;
68523;SDS011;55524;51.380;13.372;2022-07-29T07:18:13;3.90;;;2.00;;
68523;SDS011;55524;51.380;13.372;2022-07-29T07:20:40;4.57;;;1.65;;
68523;SDS011;55524;51.380;13.372;2022-07-29T07:23:08;7.45;;;1.70;;
68523;SDS011;55524;51.380;13.372;2022-07-29T07:25:34;5.88;;;2.03;;
68523;SDS011;55524;51.380;13.372;2022-07-29T07:28:00;4.88;;;1.60;;
68523;SDS011;55524;51.380;13.372;2022-07-29T07:30:27;3.28;;;1.65;;
68523;SDS011;55524;51.380;13.372;2022-07-29T07:32:54;4.80;;;2.17;;
68523;SDS011;55524;51.380;13.372;2022-07-29T07:35:20;7.78;;;2.35;;
68523;SDS011;55524;51.380;13.372;2022-07-29T07:37:48;8.05;;;1.90;;
68523;SDS011;55524;51.380;13.372;2022-07-29T07:40:18;6.07;;;2.08;;
68523;SDS011;55524;51.380;13.372;2022-07-29T07:42:44;4.60;;;1.75;;
68523;SDS011;55524;51.380;13.372;2022-07-29T07:45:11;7.05;;;2.00;;
68523;SDS011;55524;51.380;13.372;2022-07-29T07:47:42;8.77;;;1.92;;
68523;SDS011;55524;51.380;13.372;2022-07-29T07:50:10;6.72;;;2.30;;
68523;SDS011;55524;51.380;13.372;2022-07-29T07:52:46;4.32;;;1.80;;
68523;SDS011;55524;51.380;13.372;2022-07-29T07:55:18;6.60;;;1.88;;
68523;SDS011;55524;51.380;13.372;2022-07-29T07:57:45;6.32;;;2.03;;
68523;SDS011;55524;51.380;13.372;2022-07-29T08:00:13;13.15;;;2.22;;
68523;SDS011;55524;51.380;13.372;2022-07-29T08:02:40;5.43;;;1.67;;
68523;SDS011;55524;51.380;13.372;2022-07-29T08:05:08;9.70;;;2.03;;
68523;SDS011;55524;51.380;13.372;2022-07-29T08:07:37;5.85;;;2.03;;
68523;SDS011;55524;51.380;13.372;2022-07-29T08:10:05;3.35;;;1.95;;
68523;SDS011;55524;51.380;13.372;2022-07-29T08:12:37;13.57;;;2.13;;
68523;SDS011;55524;51.380;13.372;2022-07-29T08:15:04;5.88;;;1.75;;
68523;SDS011;55524;51.380;13.372;2022-07-29T08:17:34;5.43;;;1.65;;
68523;SDS011;55524;51.380;13.372;2022-07-29T08:20:09;5.38;;;1.67;;
68523;SDS011;55524;51.380;13.372;2022-07-29T08:22:36;16.20;;;3.20;;
68523;SDS011;55524;51.380;13.372;2022-07-29T08:25:05;7.07;;;1.85;;
68523;SDS011;55524;51.380;13.372;2022-07-29T08:27:32;10.98;;;2.10;;
68523;SDS011;55524;51.380;13.372;2022-07-29T08:30:09;7.20;;;2.08;;
68523;SDS011;55524;51.380;13.372;2022-07-29T08:32:36;11.93;;;2.20;;
68523;SDS011;55524;51.380;13.372;2022-07-29T08:35:03;8.10;;;1.90;;
68523;SDS011;55524;51.380;13.372;2022-07-29T08:37:29;8.02;;;1.70;;
68523;SDS011;55524;51.380;13.372;2022-07-29T08:39:56;5.53;;;1.90;;
68523;SDS011;55524;51.380;13.372;2022-07-29T08:42:22;8.48;;;1.60;;
68523;SDS011;55524;51.380;13.372;2022-07-29T08:44:48;9.65;;;1.73;;
68523;SDS011;55524;51.380;13.372;2022-07-29T08:47:15;21.55;;;3.63;;
68523;SDS011;55524;51.380;13.372;2022-07-29T08:49:42;15.05;;;2.85;;
68523;SDS011;55524;51.380;13.372;2022-07-29T08:52:10;10.85;;;4.93;;
68523;SDS011;55524;51.380;13.372;2022-07-29T08:54:38;10.88;;;3.70;;
68523;SDS011;55524;51.380;13.372;2022-07-29T08:57:09;8.63;;;2.60;;
68523;SDS011;55524;51.380;13.372;2022-07-29T08:59:40;30.08;;;5.10;;
68523;SDS011;55524;51.380;13.372;2022-07-29T09:02:10;4.97;;;1.85;;
68523;SDS011;55524;51.380;13.372;2022-07-29T09:04:46;5.00;;;2.00;;
68523;SDS011;55524;51.380;13.372;2022-07-29T09:07:14;6.25;;;2.00;;
68523;SDS011;55524;51.380;13.372;2022-07-29T09:09:42;5.97;;;2.10;;
68523;SDS011;55524;51.380;13.372;2022-07-29T09:12:09;5.80;;;2.22;;
68523;SDS011;55524;51.380;13.372;2022-07-29T09:14:39;5.03;;;1.70;;
68523;SDS011;55524;51.380;13.372;2022-07-29T09:17:07;6.53;;;2.00;;
68523;SDS011;55524;51.380;13.372;2022-07-29T09:19:35;3.88;;;1.60;;
68523;SDS011;55524;51.380;13.372;2022-07-29T09:22:03;5.88;;;1.80;;
68523;SDS011;55524;51.380;13.372;2022-07-29T09:27:09;5.85;;;1.73;;
68523;SDS011;55524;51.380;13.372;2022-07-29T09:30:00;6.50;;;2.13;;
68523;SDS011;55524;51.380;13.372;2022-07-29T09:32:31;4.20;;;1.70;;
68523;SDS011;55524;51.380;13.372;2022-07-29T09:35:18;7.72;;;2.00;;
68523;SDS011;55524;51.380;13.372;2022-07-29T09:37:46;4.82;;;1.55;;
68523;SDS011;55524;51.380;13.372;2022-07-29T09:40:14;8.48;;;1.88;;
68523;SDS011;55524;51.380;13.372;2022-07-29T09:42:46;9.30;;;2.17;;
68523;SDS011;55524;51.380;13.372;2022-07-29T09:45:27;5.65;;;1.80;;
68523;SDS011;55524;51.380;13.372;2022-07-29T09:47:55;7.97;;;1.90;;
68523;SDS011;55524;51.380;13.372;2022-07-29T09:53:29;8.18;;;1.80;;
68523;SDS011;55524;51.380;13.372;2022-07-29T09:56:00;6.78;;;2.38;;
68523;SDS011;55524;51.380;13.372;2022-07-29T09:58:27;6.68;;;1.70;;
68523;SDS011;55524;51.380;13.372;2022-07-29T10:00:54;4.95;;;1.92;;
68523;SDS011;55524;51.380;13.372;2022-07-29T10:03:21;8.48;;;2.13;;
68523;SDS011;55524;51.380;13.372;2022-07-29T10:06:08;12.00;;;1.98;;
68523;SDS011;55524;51.380;13.372;2022-07-29T10:08:36;5.22;;;1.90;;
68523;SDS011;55524;51.380;13.372;2022-07-29T10:11:13;4.50;;;1.58;;
68523;SDS011;55524;51.380;13.372;2022-07-29T10:13:41;5.70;;;1.90;;
68523;SDS011;55524;51.380;13.372;2022-07-29T10:16:09;7.70;;;1.70;;
68523;SDS011;55524;51.380;13.372;2022-07-29T10:18:40;4.88;;;1.58;;
68523;SDS011;55524;51.380;13.372;2022-07-29T10:21:08;5.97;;;1.85;;
68523;SDS011;55524;51.380;13.372;2022-07-29T10:23:35;5.78;;;2.00;;
68523;SDS011;55524;51.380;13.372;2022-07-29T10:26:03;2.65;;;1.60;;
68523;SDS011;55524;51.380;13.372;2022-07-29T10:28:31;4.65;;;1.80;;
68523;SDS011;55524;51.380;13.372;2022-07-29T10:31:01;5.55;;;1.60;;
68523;SDS011;55524;51.380;13.372;2022-07-29T10:42:54;14.43;;;2.00;;
68523;SDS011;55524;51.380;13.372;2022-07-29T10:45:35;5.93;;;1.60;;
68523;SDS011;55524;51.380;13.372;2022-07-29T10:48:04;6.15;;;2.20;;
68523;SDS011;55524;51.380;13.372;2022-07-29T10:50:56;9.18;;;2.13;;
68523;SDS011;55524;51.380;13.372;2022-07-29T10:53:48;4.50;;;1.80;;
68523;SDS011;55524;51.380;13.372;2022-07-29T10:56:49;5.30;;;2.05;;
68523;SDS011;55524;51.380;13.372;2022-07-29T11:01:49;6.03;;;1.90;;
68523;SDS011;55524;51.380;13.372;2022-07-29T11:04:30;4.18;;;1.92;;
68523;SDS011;55524;51.380;13.372;2022-07-29T11:07:08;4.13;;;2.72;;
68523;SDS011;55524;51.380;13.372;2022-07-29T11:09:35;6.13;;;2.63;;
68523;SDS011;55524;51.380;13.372;2022-07-29T11:12:01;13.27;;;3.35;;
68523;SDS011;55524;51.380;13.372;2022-07-29T11:17:27;7.18;;;2.50;;
68523;SDS011;55524;51.380;13.372;2022-07-29T11:22:59;6.40;;;2.35;;
68523;SDS011;55524;51.380;13.372;2022-07-29T11:25:26;4.82;;;2.22;;
68523;SDS011;55524;51.380;13.372;2022-07-29T11:27:53;11.15;;;3.05;;
68523;SDS011;55524;51.380;13.372;2022-07-29T11:30:47;9.75;;;3.15;;
68523;SDS011;55524;51.380;13.372;2022-07-29T11:33:32;11.32;;;3.45;;
68523;SDS011;55524;51.380;13.372;2022-07-29T11:36:21;9.32;;;3.00;;
68523;SDS011;55524;51.380;13.372;2022-07-29T11:38:47;6.45;;;2.60;;
68523;SDS011;55524;51.380;13.372;2022-07-29T11:41:23;9.40;;;3.20;;
68523;SDS011;55524;51.380;13.372;2022-07-29T11:43:54;4.25;;;2.60;;
68523;SDS011;55524;51.380;13.372;2022-07-29T11:46:43;7.30;;;3.10;;
68523;SDS011;55524;51.380;13.372;2022-07-29T11:49:11;6.22;;;2.60;;
68523;SDS011;55524;51.380;13.372;2022-07-29T11:51:38;6.88;;;2.50;;
68523;SDS011;55524;51.380;13.372;2022-07-29T11:54:05;3.78;;;2.38;;
68523;SDS011;55524;51.380;13.372;2022-07-29T11:56:38;5.80;;;2.30;;
68523;SDS011;55524;51.380;13.372;2022-07-29T11:59:08;10.35;;;2.53;;
68523;SDS011;55524;51.380;13.372;2022-07-29T12:01:35;14.10;;;2.88;;
68523;SDS011;55524;51.380;13.372;2022-07-29T12:04:03;4.22;;;2.05;;
68523;SDS011;55524;51.380;13.372;2022-07-29T12:06:33;8.65;;;2.33;;
68523;SDS011;55524;51.380;13.372;2022-07-29T12:08:59;6.00;;;2.30;;
68523;SDS011;55524;51.380;13.372;2022-07-29T12:11:31;11.20;;;3.33;;
68523;SDS011;55524;51.380;13.372;2022-07-29T12:13:57;9.02;;;2.60;;
68523;SDS011;55524;51.380;13.372;2022-07-29T12:16:33;8.18;;;2.83;;
68523;SDS011;55524;51.380;13.372;2022-07-29T12:19:01;6.32;;;2.70;;
68523;SDS011;55524;51.380;13.372;2022-07-29T12:21:29;8.32;;;2.75;;
68523;SDS011;55524;51.380;13.372;2022-07-29T12:24:11;9.27;;;2.70;;
68523;SDS011;55524;51.380;13.372;2022-07-29T12:26:48;11.80;;;2.90;;
68523;SDS011;55524;51.380;13.372;2022-07-29T12:29:15;6.00;;;3.20;;
68523;SDS011;55524;51.380;13.372;2022-07-29T12:31:42;5.65;;;3.10;;
68523;SDS011;55524;51.380;13.372;2022-07-29T12:34:10;21.45;;;4.45;;
68523;SDS011;55524;51.380;13.372;2022-07-29T12:36:38;4.93;;;3.17;;
68523;SDS011;55524;51.380;13.372;2022-07-29T12:39:05;7.53;;;2.92;;
68523;SDS011;55524;51.380;13.372;2022-07-29T12:41:34;5.80;;;2.88;;
68523;SDS011;55524;51.380;13.372;2022-07-29T12:44:00;6.47;;;3.55;;
68523;SDS011;55524;51.380;13.372;2022-07-29T12:46:27;13.55;;;3.03;;
68523;SDS011;55524;51.380;13.372;2022-07-29T12:48:53;5.63;;;2.90;;
68523;SDS011;55524;51.380;13.372;2022-07-29T12:51:28;6.28;;;2.80;;
68523;SDS011;55524;51.380;13.372;2022-07-29T12:56:39;11.20;;;3.20;;
68523;SDS011;55524;51.380;13.372;2022-07-29T12:59:11;15.13;;;3.20;;
68523;SDS011;55524;51.380;13.372;2022-07-29T13:01:42;8.63;;;3.10;;
68523;SDS011;55524;51.380;13.372;2022-07-29T13:04:09;7.53;;;2.75;;
68523;SDS011;55524;51.380;13.372;2022-07-29T13:09:07;12.45;;;2.67;;
68523;SDS011;55524;51.380;13.372;2022-07-29T13:11:38;6.63;;;2.50;;
68523;SDS011;55524;51.380;13.372;2022-07-29T13:14:07;7.05;;;3.00;;
68523;SDS011;55524;51.380;13.372;2022-07-29T13:16:35;6.18;;;2.80;;
68523;SDS011;55524;51.380;13.372;2022-07-29T13:19:31;7.43;;;2.60;;
68523;SDS011;55524;51.380;13.372;2022-07-29T13:22:02;9.98;;;2.90;;
68523;SDS011;55524;51.380;13.372;2022-07-29T13:24:29;10.20;;;2.95;;
68523;SDS011;55524;51.380;13.372;2022-07-29T13:26:55;9.82;;;2.92;;
68523;SDS011;55524;51.380;13.372;2022-07-29T13:29:22;14.40;;;3.10;;
68523;SDS011;55524;51.380;13.372;2022-07-29T13:31:48;9.63;;;3.00;;
68523;SDS011;55524;51.380;13.372;2022-07-29T13:34:15;8.93;;;3.05;;
68523;SDS011;55524;51.380;13.372;2022-07-29T13:36:41;4.88;;;2.42;;
68523;SDS011;55524;51.380;13.372;2022-07-29T13:39:08;6.95;;;2.80;;
68523;SDS011;55524;51.380;13.372;2022-07-29T13:41:34;10.93;;;3.10;;
68523;SDS011;55524;51.380;13.372;2022-07-29T13:44:00;7.97;;;3.03;;
68523;SDS011;55524;51.380;13.372;2022-07-29T13:46:27;9.40;;;3.22;;
68523;SDS011;55524;51.380;13.372;2022-07-29T13:48:53;6.55;;;2.80;;
68523;SDS011;55524;51.380;13.372;2022-07-29T13:51:19;6.47;;;2.55;;
68523;SDS011;55524;51.380;13.372;2022-07-29T13:53:46;8.50;;;2.90;;
68523;SDS011;55524;51.380;13.372;2022-07-29T13:56:12;10.75;;;2.53;;
68523;SDS011;55524;51.380;13.372;2022-07-29T13:58:39;6.78;;;2.67;;
68523;SDS011;55524;51.380;13.372;2022-07-29T14:01:05;5.75;;;2.58;;
68523;SDS011;55524;51.380;13.372;2022-07-29T14:03:31;10.32;;;2.83;;
68523;SDS011;55524;51.380;13.372;2022-07-29T14:05:57;5.32;;;2.55;;
68523;SDS011;55524;51.380;13.372;2022-07-29T14:08:25;6.07;;;2.60;;
68523;SDS011;55524;51.380;13.372;2022-07-29T14:10:51;4.65;;;2.80;;
68523;SDS011;55524;51.380;13.372;2022-07-29T14:13:17;6.05;;;2.85;;
68523;SDS011;55524;51.380;13.372;2022-07-29T14:15:44;7.85;;;3.55;;
68523;SDS011;55524;51.380;13.372;2022-07-29T14:18:10;6.93;;;2.35;;
68523;SDS011;55524;51.380;13.372;2022-07-29T14:20:36;9.85;;;2.38;;
68523;SDS011;55524;51.380;13.372;2022-07-29T14:23:02;11.20;;;2.40;;
68523;SDS011;55524;51.380;13.372;2022-07-29T14:25:29;23.42;;;3.38;;
68523;SDS011;55524;51.380;13.372;2022-07-29T14:27:55;8.38;;;2.67;;
68523;SDS011;55524;51.380;13.372;2022-07-29T14:30:21;5.05;;;2.70;;
68523;SDS011;55524;51.380;13.372;2022-07-29T14:32:47;5.90;;;2.92;;
68523;SDS011;55524;51.380;13.372;2022-07-29T14:35:14;5.40;;;2.15;;
68523;SDS011;55524;51.380;13.372;2022-07-29T14:37:41;13.00;;;3.38;;
68523;SDS011;55524;51.380;13.372;2022-07-29T14:40:08;10.10;;;2.60;;
68523;SDS011;55524;51.380;13.372;2022-07-29T14:42:36;9.90;;;2.83;;
68523;SDS011;55524;51.380;13.372;2022-07-29T14:45:04;9.18;;;2.80;;
68523;SDS011;55524;51.380;13.372;2022-07-29T14:47:31;14.75;;;3.22;;
68523;SDS011;55524;51.380;13.372;2022-07-29T14:49:58;34.78;;;5.15;;
68523;SDS011;55524;51.380;13.372;2022-07-29T14:52:24;6.30;;;2.65;;
68523;SDS011;55524;51.380;13.372;2022-07-29T14:54:51;4.40;;;2.60;;
68523;SDS011;55524;51.380;13.372;2022-07-29T14:57:17;9.05;;;2.40;;
68523;SDS011;55524;51.380;13.372;2022-07-29T14:59:43;11.02;;;2.65;;
68523;SDS011;55524;51.380;13.372;2022-07-29T15:02:09;5.53;;;2.75;;
68523;SDS011;55524;51.380;13.372;2022-07-29T15:04:36;15.13;;;3.33;;
68523;SDS011;55524;51.380;13.372;2022-07-29T15:07:02;5.70;;;2.80;;
68523;SDS011;55524;51.380;13.372;2022-07-29T15:09:29;9.05;;;2.80;;
68523;SDS011;55524;51.380;13.372;2022-07-29T15:11:55;12.13;;;3.17;;
68523;SDS011;55524;51.380;13.372;2022-07-29T15:14:22;6.15;;;2.65;;
68523;SDS011;55524;51.380;13.372;2022-07-29T15:16:48;4.30;;;2.38;;
68523;SDS011;55524;51.380;13.372;2022-07-29T15:19:14;8.10;;;2.40;;
68523;SDS011;55524;51.380;13.372;2022-07-29T15:21:40;2.67;;;2.22;;
68523;SDS011;55524;51.380;13.372;2022-07-29T15:24:07;3.60;;;2.50;;
68523;SDS011;55524;51.380;13.372;2022-07-29T15:26:33;6.90;;;2.17;;
68523;SDS011;55524;51.380;13.372;2022-07-29T15:28:59;7.50;;;2.40;;
68523;SDS011;55524;51.380;13.372;2022-07-29T15:31:26;4.50;;;2.47;;
68523;SDS011;55524;51.380;13.372;2022-07-29T15:33:54;5.18;;;2.70;;
68523;SDS011;55524;51.380;13.372;2022-07-29T15:36:20;10.10;;;2.88;;
68523;SDS011;55524;51.380;13.372;2022-07-29T15:38:46;6.93;;;2.75;;
68523;SDS011;55524;51.380;13.372;2022-07-29T15:41:13;4.70;;;2.63;;
68523;SDS011;55524;51.380;13.372;2022-07-29T15:43:43;4.93;;;2.20;;
68523;SDS011;55524;51.380;13.372;2022-07-29T15:46:13;8.82;;;3.20;;
68523;SDS011;55524;51.380;13.372;2022-07-29T15:49:00;10.18;;;4.32;;
68523;SDS011;55524;51.380;13.372;2022-07-29T15:51:30;8.88;;;3.97;;
68523;SDS011;55524;51.380;13.372;2022-07-29T15:53:56;5.65;;;2.15;;
68523;SDS011;55524;51.380;13.372;2022-07-29T15:56:23;7.32;;;2.70;;
68523;SDS011;55524;51.380;13.372;2022-07-29T15:58:50;3.55;;;2.50;;
68523;SDS011;55524;51.380;13.372;2022-07-29T16:01:18;9.32;;;3.25;;
68523;SDS011;55524;51.380;13.372;2022-07-29T16:03:44;10.30;;;2.90;;
68523;SDS011;55524;51.380;13.372;2022-07-29T16:06:11;11.70;;;2.70;;
68523;SDS011;55524;51.380;13.372;2022-07-29T16:08:38;3.05;;;2.65;;
68523;SDS011;55524;51.380;13.372;2022-07-29T16:11:04;7.53;;;2.50;;
68523;SDS011;55524;51.380;13.372;2022-07-29T16:13:30;9.65;;;3.33;;
68523;SDS011;55524;51.380;13.372;2022-07-29T16:21:08;5.35;;;2.63;;
68523;SDS011;55524;51.380;13.372;2022-07-29T16:23:36;9.73;;;4.72;;
68523;SDS011;55524;51.380;13.372;2022-07-29T16:26:03;8.32;;;3.40;;
68523;SDS011;55524;51.380;13.372;2022-07-29T16:28:29;7.72;;;3.58;;
68523;SDS011;55524;51.380;13.372;2022-07-29T16:30:55;7.18;;;2.90;;
68523;SDS011;55524;51.380;13.372;2022-07-29T16:33:22;12.15;;;2.60;;
68523;SDS011;55524;51.380;13.372;2022-07-29T16:35:50;3.90;;;2.40;;
68523;SDS011;55524;51.380;13.372;2022-07-29T16:38:17;3.88;;;2.40;;
68523;SDS011;55524;51.380;13.372;2022-07-29T16:40:43;4.63;;;2.80;;
68523;SDS011;55524;51.380;13.372;2022-07-29T16:43:10;7.38;;;3.00;;
68523;SDS011;55524;51.380;13.372;2022-07-29T16:45:36;6.60;;;3.20;;
68523;SDS011;55524;51.380;13.372;2022-07-29T16:48:03;21.40;;;5.03;;
68523;SDS011;55524;51.380;13.372;2022-07-29T16:50:29;6.00;;;3.80;;
68523;SDS011;55524;51.380;13.372;2022-07-29T16:52:56;9.00;;;4.05;;
68523;SDS011;55524;51.380;13.372;2022-07-29T16:55:22;12.35;;;3.30;;
68523;SDS011;55524;51.380;13.372;2022-07-29T16:57:49;12.90;;;3.03;;
68523;SDS011;55524;51.380;13.372;2022-07-29T17:00:19;10.75;;;3.25;;
68523;SDS011;55524;51.380;13.372;2022-07-29T17:02:46;5.47;;;3.30;;
68523;SDS011;55524;51.380;13.372;2022-07-29T17:05:13;10.65;;;2.60;;
68523;SDS011;55524;51.380;13.372;2022-07-29T17:07:40;12.98;;;2.63;;
68523;SDS011;55524;51.380;13.372;2022-07-29T17:10:07;6.22;;;2.63;;
68523;SDS011;55524;51.380;13.372;2022-07-29T17:12:34;9.30;;;2.70;;
68523;SDS011;55524;51.380;13.372;2022-07-29T17:15:05;7.15;;;2.47;;
68523;SDS011;55524;51.380;13.372;2022-07-29T17:17:35;6.45;;;2.78;;
68523;SDS011;55524;51.380;13.372;2022-07-29T17:20:02;6.95;;;2.40;;
68523;SDS011;55524;51.380;13.372;2022-07-29T17:22:29;8.32;;;2.75;;
68523;SDS011;55524;51.380;13.372;2022-07-29T17:24:56;4.93;;;2.83;;
68523;SDS011;55524;51.380;13.372;2022-07-29T17:27:22;2.70;;;2.50;;
68523;SDS011;55524;51.380;13.372;2022-07-29T17:29:48;8.15;;;2.50;;
68523;SDS011;55524;51.380;13.372;2022-07-29T17:32:15;3.33;;;2.60;;
68523;SDS011;55524;51.380;13.372;2022-07-29T17:34:41;6.05;;;2.50;;
68523;SDS011;55524;51.380;13.372;2022-07-29T17:37:09;5.57;;;2.30;;
68523;SDS011;55524;51.380;13.372;2022-07-29T17:39:36;6.50;;;2.67;;
68523;SDS011;55524;51.380;13.372;2022-07-29T17:42:05;3.67;;;2.83;;
68523;SDS011;55524;51.380;13.372;2022-07-29T17:44:33;2.72;;;2.30;;
68523;SDS011;55524;51.380;13.372;2022-07-29T17:47:03;4.97;;;2.40;;
68523;SDS011;55524;51.380;13.372;2022-07-29T17:49:30;3.13;;;2.45;;
68523;SDS011;55524;51.380;13.372;2022-07-29T17:51:56;6.22;;;2.70;;
68523;SDS011;55524;51.380;13.372;2022-07-29T17:54:23;8.35;;;2.67;;
68523;SDS011;55524;51.380;13.372;2022-07-29T17:56:49;5.18;;;2.20;;
68523;SDS011;55524;51.380;13.372;2022-07-29T17:59:15;3.45;;;2.45;;
68523;SDS011;55524;51.380;13.372;2022-07-29T18:01:42;4.78;;;2.78;;
68523;SDS011;55524;51.380;13.372;2022-07-29T18:04:08;5.93;;;2.67;;
68523;SDS011;55524;51.380;13.372;2022-07-29T18:06:35;6.85;;;2.58;;
68523;SDS011;55524;51.380;13.372;2022-07-29T18:09:02;4.47;;;2.58;;
68523;SDS011;55524;51.380;13.372;2022-07-29T18:11:29;7.20;;;2.72;;
68523;SDS011;55524;51.380;13.372;2022-07-29T18:13:56;3.05;;;2.72;;
68523;SDS011;55524;51.380;13.372;2022-07-29T18:16:22;3.63;;;2.55;;
68523;SDS011;55524;51.380;13.372;2022-07-29T18:18:49;4.30;;;2.45;;
68523;SDS011;55524;51.380;13.372;2022-07-29T18:21:15;4.53;;;2.63;;
68523;SDS011;55524;51.380;13.372;2022-07-29T18:23:41;3.78;;;2.53;;
68523;SDS011;55524;51.380;13.372;2022-07-29T18:26:08;3.60;;;2.63;;
68523;SDS011;55524;51.380;13.372;2022-07-29T18:28:34;5.90;;;2.65;;
68523;SDS011;55524;51.380;13.372;2022-07-29T18:31:00;8.27;;;2.60;;
68523;SDS011;55524;51.380;13.372;2022-07-29T18:33:27;3.22;;;2.28;;
68523;SDS011;55524;51.380;13.372;2022-07-29T18:35:54;6.25;;;2.70;;
68523;SDS011;55524;51.380;13.372;2022-07-29T18:38:20;6.95;;;3.05;;
68523;SDS011;55524;51.380;13.372;2022-07-29T18:40:47;5.97;;;2.90;;
68523;SDS011;55524;51.380;13.372;2022-07-29T18:43:13;6.18;;;2.97;;
68523;SDS011;55524;51.380;13.372;2022-07-29T18:45:39;4.53;;;2.80;;
68523;SDS011;55524;51.380;13.372;2022-07-29T18:48:06;2.70;;;2.50;;
68523;SDS011;55524;51.380;13.372;2022-07-29T18:50:32;6.22;;;3.53;;
68523;SDS011;55524;51.380;13.372;2022-07-29T18:52:59;5.18;;;3.00;;
68523;SDS011;55524;51.380;13.372;2022-07-29T18:55:27;5.18;;;2.97;;
68523;SDS011;55524;51.380;13.372;2022-07-29T18:57:53;4.97;;;2.90;;
68523;SDS011;55524;51.380;13.372;2022-07-29T19:00:20;6.03;;;3.00;;
68523;SDS011;55524;51.380;13.372;2022-07-29T19:02:47;6.10;;;2.88;;
68523;SDS011;55524;51.380;13.372;2022-07-29T19:05:14;3.70;;;2.70;;
68523;SDS011;55524;51.380;13.372;2022-07-29T19:07:41;7.20;;;2.60;;
68523;SDS011;55524;51.380;13.372;2022-07-29T19:10:07;4.50;;;2.95;;
68523;SDS011;55524;51.380;13.372;2022-07-29T19:12:34;5.88;;;2.90;;
68523;SDS011;55524;51.380;13.372;2022-07-29T19:15:01;2.90;;;2.70;;
68523;SDS011;55524;51.380;13.372;2022-07-29T19:17:28;5.97;;;2.97;;
68523;SDS011;55524;51.380;13.372;2022-07-29T19:19:54;6.95;;;3.00;;
68523;SDS011;55524;51.380;13.372;2022-07-29T19:22:21;6.45;;;3.03;;
68523;SDS011;55524;51.380;13.372;2022-07-29T19:24:48;7.93;;;2.90;;
68523;SDS011;55524;51.380;13.372;2022-07-29T19:27:15;6.85;;;3.00;;
68523;SDS011;55524;51.380;13.372;2022-07-29T19:29:42;6.75;;;3.00;;
68523;SDS011;55524;51.380;13.372;2022-07-29T19:32:08;4.70;;;3.22;;
68523;SDS011;55524;51.380;13.372;2022-07-29T19:34:37;4.65;;;3.08;;
68523;SDS011;55524;51.380;13.372;2022-07-29T19:37:07;4.10;;;3.00;;
68523;SDS011;55524;51.380;13.372;2022-07-29T19:39:34;5.57;;;3.17;;
68523;SDS011;55524;51.380;13.372;2022-07-29T19:42:01;6.72;;;3.40;;
68523;SDS011;55524;51.380;13.372;2022-07-29T19:44:28;5.75;;;2.97;;
68523;SDS011;55524;51.380;13.372;2022-07-29T19:46:55;5.80;;;3.20;;
68523;SDS011;55524;51.380;13.372;2022-07-29T19:49:24;6.80;;;3.10;;
68523;SDS011;55524;51.380;13.372;2022-07-29T19:51:50;9.50;;;3.30;;
68523;SDS011;55524;51.380;13.372;2022-07-29T19:54:16;5.90;;;3.25;;
68523;SDS011;55524;51.380;13.372;2022-07-29T19:56:42;4.28;;;2.78;;
68523;SDS011;55524;51.380;13.372;2022-07-29T19:59:09;9.07;;;3.20;;
68523;SDS011;55524;51.380;13.372;2022-07-29T20:01:36;3.83;;;2.90;;
68523;SDS011;55524;51.380;13.372;2022-07-29T20:04:03;5.13;;;3.10;;
68523;SDS011;55524;51.380;13.372;2022-07-29T20:06:29;7.32;;;3.28;;
68523;SDS011;55524;51.380;13.372;2022-07-29T20:08:56;3.85;;;3.00;;
68523;SDS011;55524;51.380;13.372;2022-07-29T20:11:23;4.70;;;3.17;;
68523;SDS011;55524;51.380;13.372;2022-07-29T20:13:56;5.75;;;3.22;;